Terminal Aerodrome Forecast
Issued by NWS

Home | Current Version | Previous Version | Text Only | Print | Product List | Glossary On
Versions: 1 2 3 4 5 6 7 8 9 10 11 12 13 14
000
FTUS43 KDTX 300218 AAA
TAFMBS
TAF AMD
KMBS 300218Z 3002/3024 VRB04KT P6SM SKC
     FM300700 VRB03KT P6SM BKN035
     FM301500 04005KT P6SM BKN040 PROB30 3019/3022 4SM TSRA
      OVC028CB=

USA.gov is the U.S. government's official web portal to all federal, state and local government web resources and services.